Aplin, Arkansas
Current Conditions -  °F | °C
As of 11:53 AM on Saturday 25 Oct 2014 (Local Time) from KRUE Reporting Station
Clear Clear  
Wind Chill: 76°   Ceiling: Unl
Heat Index: 76°   Visibility: 10mi
Dew Point: 62°   Wind: 5mph
Humidity: 62%   Direction: NA
Pressure: 30.1"   Gusts: NA
Location:  34.9067°N, 93.0072°W
Report Text: KRUE 251653Z AUTO VRB04KT 10SM CLR 24/17 A3010 RMK AO2 SLP188 T02440167
Loading
Personal Weather Stations






























Interactive Weather Map New forecast layout! Learn more

10-Day Weather Forecast

Advertisements
Track Severe Weather on mobile